Adrian, Texas
Current Conditions -  °F | °C
As of 10:35 PM on Friday 24 Oct 2014 (Local Time) from KHRX Reporting Station
Clear Clear  
Wind Chill: 60°   Ceiling: Unl
Heat Index: 60°   Visibility: 10mi
Dew Point: 47°   Wind: 7mph
Humidity: 64%   Direction: 180°S
Pressure: 30.17"   Gusts: NA
Location:  35.27°N, 102.67°W
Report Text: KHRX 250335Z AUTO 18006KT 10SM CLR 15/09 A3017 RMK AO2 T01540086
Loading
Personal Weather Stations






























Interactive Weather Map
Tropical Storm Tracking
New forecast layout! Learn more

10-Day Weather Forecast

Advertisements
Track Severe Weather on mobile